createdAt,value
2023-01-29T00:01:34.705Z,13.82
2023-01-29T00:04:03.499Z,11.20
2023-01-29T00:06:30.137Z,10.05
2023-01-29T00:08:57.189Z,11.93
2023-01-29T00:11:25.416Z,11.48
2023-01-29T00:13:54.776Z,11.60
2023-01-29T00:16:24.221Z,10.23
2023-01-29T00:18:50.727Z,12.57
2023-01-29T00:21:18.569Z,12.82
2023-01-29T00:23:47.360Z,12.25
2023-01-29T00:26:14.267Z,11.65
2023-01-29T00:28:44.007Z,12.07
2023-01-29T00:31:11.705Z,14.57
2023-01-29T00:33:38.979Z,11.05
2023-01-29T00:36:08.557Z,11.95
2023-01-29T00:38:36.057Z,12.32
2023-01-29T00:41:30.502Z,12.88
2023-01-29T00:44:18.617Z,10.15
2023-01-29T00:46:46.530Z,11.85
2023-01-29T00:49:13.261Z,13.73
2023-01-29T00:51:40.145Z,11.07
2023-01-29T00:54:09.093Z,14.20
2023-01-29T00:56:38.214Z,10.77
2023-01-29T00:59:09.477Z,10.88
2023-01-29T01:01:57.462Z,14.43
2023-01-29T01:04:23.942Z,10.32
2023-01-29T01:06:50.626Z,11.40
2023-01-29T01:09:52.627Z,11.02
2023-01-29T01:12:24.143Z,15.25
2023-01-29T01:14:50.821Z,10.40
2023-01-29T01:17:19.782Z,10.23
2023-01-29T01:19:46.506Z,12.52
2023-01-29T01:22:15.377Z,16.30
2023-01-29T01:24:45.858Z,12.10
2023-01-29T01:27:13.009Z,13.68
2023-01-29T01:29:42.019Z,11.75
2023-01-29T01:32:08.710Z,12.90
2023-01-29T01:34:37.722Z,13.50
2023-01-29T01:37:09.227Z,14.57
2023-01-29T01:39:35.886Z,14.75
2023-01-29T01:42:02.428Z,15.38
2023-01-29T01:44:50.459Z,9.55
2023-01-29T01:47:22.940Z,16.75
2023-01-29T01:49:51.932Z,14.50
2023-01-29T01:52:18.940Z,15.70
2023-01-29T01:57:18.295Z,13.95
2023-01-29T01:59:49.720Z,15.18
2023-01-29T02:02:36.003Z,12.93
2023-01-29T02:05:21.246Z,13.52
2023-01-29T02:08:09.463Z,14.57
2023-01-29T02:10:39.999Z,13.30
2023-01-29T02:13:09.451Z,11.88
2023-01-29T02:15:41.850Z,12.07
2023-01-29T02:18:10.900Z,12.70
2023-01-29T02:20:38.312Z,11.73
2023-01-29T02:23:16.265Z,13.40
2023-01-29T02:25:45.089Z,14.45
2023-01-29T02:28:17.571Z,14.25
2023-01-29T02:30:49.647Z,13.32
2023-01-29T02:33:16.160Z,14.20
2023-01-29T02:35:50.383Z,14.50
2023-01-29T02:38:28.639Z,11.57
2023-01-29T02:40:58.175Z,13.02
2023-01-29T02:43:37.330Z,16.80
2023-01-29T02:46:22.350Z,15.05
2023-01-29T02:48:55.562Z,12.45
2023-01-29T02:51:43.277Z,15.00
2023-01-29T02:54:24.797Z,13.40
2023-01-29T02:56:53.602Z,11.65
2023-01-29T02:59:40.890Z,12.40
2023-01-29T03:02:12.758Z,13.18
2023-01-29T03:04:46.479Z,13.68
2023-01-29T03:07:38.289Z,11.50
2023-01-29T03:10:20.628Z,10.70
2023-01-29T03:12:51.198Z,13.40
2023-01-29T03:15:26.577Z,15.55
2023-01-29T03:18:11.639Z,15.10
2023-01-29T03:20:53.726Z,16.20
2023-01-29T03:23:27.056Z,13.75
2023-01-29T03:26:19.505Z,12.95
2023-01-29T03:29:07.829Z,11.65
2023-01-29T03:31:54.385Z,12.80
2023-01-29T03:34:28.487Z,14.18
2023-01-29T03:37:00.297Z,18.67
2023-01-29T03:39:31.133Z,14.20
2023-01-29T03:42:14.851Z,11.90
2023-01-29T03:45:00.544Z,16.50
2023-01-29T03:47:48.026Z,15.00
2023-01-29T03:50:18.029Z,11.90
2023-01-29T03:53:14.230Z,12.77
2023-01-29T03:56:15.646Z,14.43
2023-01-29T03:58:47.869Z,13.63
2023-01-29T04:01:19.479Z,14.93
2023-01-29T04:03:52.032Z,12.77
2023-01-29T04:06:23.714Z,11.05
2023-01-29T04:09:15.207Z,10.93
2023-01-29T04:11:45.276Z,14.75
2023-01-29T04:14:12.328Z,13.95
2023-01-29T04:16:41.185Z,14.07
2023-01-29T04:19:16.142Z,10.73
2023-01-29T04:21:43.913Z,12.07
2023-01-29T04:24:11.756Z,14.02
2023-01-29T04:26:43.960Z,12.10
2023-01-29T04:29:13.071Z,15.40
2023-01-29T04:32:02.573Z,13.60
2023-01-29T04:34:38.856Z,13.98
2023-01-29T04:37:19.232Z,12.38
2023-01-29T04:39:54.329Z,12.85
2023-01-29T04:42:31.094Z,13.32
2023-01-29T04:45:00.634Z,11.65
2023-01-29T04:47:52.366Z,14.55
2023-01-29T04:50:35.273Z,16.00
2023-01-29T04:53:08.012Z,13.48
2023-01-29T04:55:40.229Z,10.55
2023-01-29T04:58:17.597Z,10.88
2023-01-29T05:00:48.980Z,13.48
2023-01-29T05:03:16.197Z,13.57
2023-01-29T05:05:45.343Z,10.68
2023-01-29T05:08:13.517Z,13.35
2023-01-29T05:10:40.184Z,12.90
2023-01-29T05:13:15.553Z,10.70
2023-01-29T05:15:47.348Z,13.40
2023-01-29T05:18:13.871Z,11.95
2023-01-29T05:20:43.584Z,13.60
2023-01-29T05:23:20.387Z,13.25
2023-01-29T05:25:52.892Z,10.70
2023-01-29T05:28:23.306Z,13.07
2023-01-29T05:30:53.330Z,11.25
2023-01-29T05:33:19.819Z,12.73
2023-01-29T05:35:47.198Z,15.30
2023-01-29T05:38:13.946Z,12.55
2023-01-29T05:40:44.935Z,11.43
2023-01-29T05:43:17.696Z,14.60
2023-01-29T05:45:51.392Z,12.98
2023-01-29T05:48:17.919Z,10.30
2023-01-29T05:50:44.465Z,13.30
2023-01-29T05:53:10.883Z,16.17
2023-01-29T05:55:39.723Z,12.63
2023-01-29T05:58:06.245Z,11.93
2023-01-29T06:00:32.773Z,15.07
2023-01-29T06:02:59.332Z,17.88
2023-01-29T06:05:25.882Z,15.80
2023-01-29T06:07:57.627Z,15.05
2023-01-29T06:10:32.066Z,10.85
2023-01-29T06:12:58.646Z,11.38
2023-01-29T06:15:27.492Z,11.07
2023-01-29T06:17:54.302Z,14.90
2023-01-29T06:20:23.882Z,13.15
2023-01-29T06:22:50.375Z,11.93
2023-01-29T06:25:19.268Z,12.27
2023-01-29T06:27:45.814Z,11.98
2023-01-29T06:30:12.507Z,13.23
2023-01-29T06:32:41.290Z,14.45
2023-01-29T06:35:10.708Z,12.45
2023-01-29T06:37:39.704Z,14.73
2023-01-29T06:40:08.923Z,11.40
2023-01-29T06:42:37.680Z,12.20
2023-01-29T06:45:04.367Z,14.27
2023-01-29T06:47:35.249Z,12.40
2023-01-29T06:50:04.167Z,13.40
2023-01-29T06:52:32.812Z,15.82
2023-01-29T06:54:59.331Z,13.52
2023-01-29T06:57:28.456Z,14.88
2023-01-29T06:59:54.996Z,13.70
2023-01-29T07:02:26.472Z,12.70
2023-01-29T07:04:52.987Z,12.65
2023-01-29T07:07:19.607Z,14.50
2023-01-29T07:09:46.147Z,17.48
2023-01-29T07:12:14.683Z,22.17
2023-01-29T07:14:43.676Z,16.80
2023-01-29T07:17:10.172Z,14.40
2023-01-29T07:19:39.142Z,13.25
2023-01-29T07:22:08.042Z,15.70
2023-01-29T07:24:36.523Z,18.30
2023-01-29T07:27:05.421Z,14.35
2023-01-29T07:29:31.963Z,16.67
2023-01-29T07:31:58.663Z,14.48
2023-01-29T07:34:27.585Z,14.25
2023-01-29T07:36:56.882Z,12.55
2023-01-29T07:39:23.573Z,11.98
2023-01-29T07:41:50.069Z,13.18
2023-01-29T07:44:16.788Z,11.90
2023-01-29T07:46:43.468Z,17.13
2023-01-29T07:49:09.941Z,17.33
2023-01-29T07:51:38.883Z,17.85
2023-01-29T07:54:08.425Z,13.85
2023-01-29T07:56:37.395Z,13.30
2023-01-29T07:59:03.931Z,13.88
2023-01-29T08:01:30.451Z,12.43
2023-01-29T08:03:56.966Z,15.32
2023-01-29T08:06:25.586Z,16.58
2023-01-29T08:08:53.238Z,17.45
2023-01-29T08:11:22.105Z,11.27
2023-01-29T08:13:48.537Z,14.43
2023-01-29T08:16:17.497Z,15.70
2023-01-29T08:18:47.576Z,13.45
2023-01-29T08:21:14.369Z,14.07
2023-01-29T08:23:43.146Z,14.70
2023-01-29T08:26:09.705Z,14.52
2023-01-29T08:28:38.739Z,16.67
2023-01-29T08:31:07.641Z,14.32
2023-01-29T08:33:39.065Z,12.93
2023-01-29T08:36:08.743Z,12.32
2023-01-29T08:41:04.013Z,15.55
2023-01-29T08:43:32.610Z,15.02
2023-01-29T08:45:59.273Z,15.65
2023-01-29T08:48:25.893Z,12.48
2023-01-29T08:50:56.926Z,14.05
2023-01-29T08:53:24.934Z,16.08
2023-01-29T08:55:53.961Z,17.42
2023-01-29T08:58:22.674Z,17.70
2023-01-29T09:00:53.867Z,16.08
2023-01-29T09:03:20.567Z,12.80
2023-01-29T09:05:47.006Z,14.48
2023-01-29T09:08:13.481Z,15.18
2023-01-29T09:10:42.377Z,12.50
2023-01-29T09:13:11.196Z,14.15
2023-01-29T09:15:37.731Z,15.63
2023-01-29T09:18:04.959Z,15.45
2023-01-29T09:20:33.793Z,16.33
2023-01-29T09:23:04.006Z,16.05
2023-01-29T09:25:30.503Z,15.82
2023-01-29T09:27:57.029Z,14.98
2023-01-29T09:30:23.630Z,15.48
2023-01-29T09:32:54.120Z,15.48
2023-01-29T09:35:26.635Z,12.10
2023-01-29T09:37:53.233Z,17.38
2023-01-29T09:40:24.919Z,14.18
2023-01-29T09:42:54.343Z,18.50
2023-01-29T09:45:25.100Z,19.98
2023-01-29T09:47:59.559Z,16.13
2023-01-29T09:50:38.365Z,16.33
2023-01-29T09:53:14.020Z,16.40
2023-01-29T09:55:45.640Z,19.83
2023-01-29T09:58:16.942Z,16.00
2023-01-29T10:00:54.811Z,15.13
2023-01-29T10:03:21.398Z,19.05
2023-01-29T10:06:06.956Z,16.17
2023-01-29T10:08:38.843Z,18.55
2023-01-29T10:11:12.927Z,16.73
2023-01-29T10:13:54.503Z,16.70
2023-01-29T10:16:34.020Z,16.73
2023-01-29T10:19:07.041Z,15.95
2023-01-29T10:21:36.548Z,15.25
2023-01-29T10:24:13.259Z,20.25
2023-01-29T10:26:42.430Z,18.85
2023-01-29T10:29:14.576Z,14.77
2023-01-29T10:31:43.686Z,17.08
2023-01-29T10:34:16.913Z,19.65
2023-01-29T10:36:45.749Z,18.20
2023-01-29T10:39:16.458Z,16.42
2023-01-29T10:41:46.968Z,18.52
2023-01-29T10:44:33.695Z,20.42
2023-01-29T10:47:18.937Z,17.52
2023-01-29T10:49:57.820Z,20.67
2023-01-29T10:52:30.401Z,18.60
2023-01-29T10:55:04.035Z,16.85
2023-01-29T10:57:35.653Z,19.13
2023-01-29T11:00:10.947Z,19.08
2023-01-29T11:02:42.835Z,22.00
2023-01-29T11:05:21.206Z,20.65
2023-01-29T11:07:54.803Z,19.88
2023-01-29T11:10:27.551Z,19.17
2023-01-29T11:12:57.222Z,20.48
2023-01-29T11:15:26.499Z,20.13
2023-01-29T11:18:03.889Z,21.38
2023-01-29T11:20:33.325Z,17.83
2023-01-29T11:23:00.311Z,19.92
2023-01-29T11:28:00.547Z,17.20
2023-01-29T11:30:31.613Z,18.58
2023-01-29T11:33:07.231Z,16.27
2023-01-29T11:35:36.688Z,18.15
2023-01-29T11:38:09.524Z,19.95
2023-01-29T11:40:39.843Z,17.33
2023-01-29T11:43:17.859Z,17.50
2023-01-29T11:45:44.831Z,20.98
2023-01-29T11:50:40.582Z,18.42
2023-01-29T11:55:49.966Z,16.10
2023-01-29T11:58:24.160Z,20.35
2023-01-29T12:00:55.322Z,20.67
2023-01-29T12:03:27.441Z,18.90
2023-01-29T12:05:58.456Z,23.08
2023-01-29T12:08:29.464Z,17.40
2023-01-29T12:11:07.379Z,18.27
2023-01-29T12:13:36.291Z,18.15
2023-01-29T12:16:11.691Z,17.00
2023-01-29T12:18:40.403Z,19.02
2023-01-29T12:21:39.408Z,19.63
2023-01-29T12:24:22.621Z,17.17
2023-01-29T12:26:55.181Z,18.50
2023-01-29T12:29:30.037Z,19.08
2023-01-29T12:31:59.072Z,19.13
2023-01-29T12:34:39.263Z,18.63
2023-01-29T12:37:14.932Z,20.60
2023-01-29T12:39:44.113Z,18.00
2023-01-29T12:42:15.426Z,20.17
2023-01-29T12:44:49.876Z,21.45
2023-01-29T12:47:31.167Z,18.27
2023-01-29T12:50:00.183Z,16.90
2023-01-29T12:52:44.888Z,15.95
2023-01-29T12:55:13.756Z,18.85
2023-01-29T12:57:49.630Z,18.38
2023-01-29T13:00:22.491Z,19.30
2023-01-29T13:03:16.182Z,18.63
2023-01-29T13:05:48.535Z,20.73
2023-01-29T13:08:22.960Z,23.70
2023-01-29T13:10:50.549Z,21.88
2023-01-29T13:13:36.302Z,18.95
2023-01-29T13:16:11.128Z,17.13
2023-01-29T13:18:43.834Z,40.03
2023-01-29T13:21:13.041Z,22.52
2023-01-29T13:23:49.956Z,17.30
2023-01-29T13:26:20.166Z,20.45
2023-01-29T13:28:47.002Z,15.85
2023-01-29T13:31:29.192Z,17.52
2023-01-29T13:34:16.906Z,23.38
2023-01-29T13:36:56.964Z,22.10
2023-01-29T13:39:30.496Z,18.17
2023-01-29T13:41:58.243Z,18.88
2023-01-29T13:44:35.978Z,20.65
2023-01-29T13:47:07.610Z,15.73
2023-01-29T13:49:34.061Z,15.98
2023-01-29T13:52:14.756Z,17.65
2023-01-29T13:54:41.868Z,18.25
2023-01-29T13:57:32.441Z,22.90
2023-01-29T13:59:59.047Z,21.70
2023-01-29T14:02:27.187Z,19.02
2023-01-29T14:05:15.508Z,19.08
2023-01-29T14:07:45.304Z,17.98
2023-01-29T14:10:17.365Z,17.13
2023-01-29T14:12:46.801Z,21.38
2023-01-29T14:15:18.369Z,19.10
2023-01-29T14:18:02.581Z,16.55
2023-01-29T14:20:45.020Z,22.52
2023-01-29T14:23:24.130Z,19.48
2023-01-29T14:25:50.809Z,19.85
2023-01-29T14:28:21.177Z,19.80
2023-01-29T14:30:51.600Z,19.17
2023-01-29T14:33:29.371Z,19.70
2023-01-29T14:35:58.900Z,20.63
2023-01-29T14:38:27.220Z,16.35
2023-01-29T14:41:03.416Z,23.73
2023-01-29T14:43:32.533Z,20.65
2023-01-29T14:46:21.112Z,16.88
2023-01-29T14:48:50.530Z,19.95
2023-01-29T14:51:17.841Z,17.75
2023-01-29T14:53:54.418Z,23.23
2023-01-29T14:56:20.887Z,18.20
2023-01-29T14:58:51.774Z,18.75
2023-01-29T15:01:23.231Z,20.13
2023-01-29T15:03:57.950Z,23.83
2023-01-29T15:06:32.038Z,19.17
2023-01-29T15:09:10.018Z,21.92
2023-01-29T15:11:51.404Z,19.35
2023-01-29T15:14:35.757Z,19.90
2023-01-29T15:17:13.561Z,19.33
2023-01-29T15:19:48.113Z,20.40
2023-01-29T15:22:18.779Z,17.50
2023-01-29T15:24:48.461Z,15.43
2023-01-29T15:27:18.830Z,20.75
2023-01-29T15:29:55.882Z,17.38
2023-01-29T15:32:33.111Z,17.05
2023-01-29T15:35:00.371Z,16.67
2023-01-29T15:37:33.004Z,19.98
2023-01-29T15:40:03.230Z,17.35
2023-01-29T15:42:46.378Z,23.60
2023-01-29T15:45:31.148Z,17.83
2023-01-29T15:48:11.109Z,18.90
2023-01-29T15:50:46.611Z,16.80
2023-01-29T15:53:20.913Z,18.30
2023-01-29T15:55:52.952Z,19.15
2023-01-29T15:58:26.042Z,18.95
2023-01-29T16:00:56.510Z,20.27
2023-01-29T16:03:26.860Z,20.42
2023-01-29T16:05:56.484Z,22.55
2023-01-29T16:08:26.783Z,17.33
2023-01-29T16:11:03.879Z,19.70
2023-01-29T16:13:34.635Z,17.70
2023-01-29T16:16:04.216Z,19.58
2023-01-29T16:18:47.723Z,20.23
2023-01-29T16:21:29.667Z,17.70
2023-01-29T16:24:10.999Z,16.50
2023-01-29T16:26:44.140Z,19.85
2023-01-29T16:29:15.969Z,20.52
2023-01-29T16:31:47.707Z,22.25
2023-01-29T16:34:19.439Z,28.55
2023-01-29T16:36:50.723Z,18.52
2023-01-29T16:39:26.211Z,23.60
2023-01-29T16:42:19.973Z,22.13
2023-01-29T16:44:58.796Z,21.35
2023-01-29T16:47:33.075Z,19.77
2023-01-29T16:50:03.902Z,20.60
2023-01-29T16:52:37.477Z,24.73
2023-01-29T16:55:09.918Z,32.35
2023-01-29T16:57:39.480Z,23.45
2023-01-29T17:00:18.959Z,17.70
2023-01-29T17:02:45.557Z,21.52
2023-01-29T17:05:33.189Z,22.13
2023-01-29T17:08:00.185Z,23.23
2023-01-29T17:10:30.595Z,22.40
2023-01-29T17:13:00.213Z,21.48
2023-01-29T17:15:34.653Z,22.33
2023-01-29T17:18:04.037Z,24.42
2023-01-29T17:20:31.027Z,20.80
2023-01-29T17:25:29.007Z,18.13
2023-01-29T17:27:57.559Z,24.58
2023-01-29T17:30:30.240Z,19.88
2023-01-29T17:32:59.215Z,23.05
2023-01-29T17:35:28.459Z,26.42
2023-01-29T17:37:57.448Z,22.17
2023-01-29T17:40:37.476Z,30.95
2023-01-29T17:43:07.570Z,20.05
2023-01-29T17:45:34.156Z,21.80
2023-01-29T17:48:00.706Z,19.08
2023-01-29T17:50:29.058Z,21.08
2023-01-29T17:52:57.935Z,18.45
2023-01-29T17:55:26.563Z,18.20
2023-01-29T17:57:58.038Z,21.38
2023-01-29T18:00:26.902Z,21.98
2023-01-29T18:03:01.572Z,20.45
2023-01-29T18:05:29.546Z,19.10
2023-01-29T18:07:56.148Z,18.80
2023-01-29T18:10:27.613Z,24.90
2023-01-29T18:12:58.911Z,21.08
2023-01-29T18:15:27.933Z,19.00
2023-01-29T18:17:57.747Z,19.52
2023-01-29T18:20:25.715Z,20.65
2023-01-29T18:22:54.859Z,19.73
2023-01-29T18:25:23.047Z,16.10
2023-01-29T18:27:53.087Z,19.33
2023-01-29T18:30:19.677Z,19.70
2023-01-29T18:32:48.385Z,19.52
2023-01-29T18:35:17.636Z,17.63
2023-01-29T18:37:44.512Z,20.05
2023-01-29T18:40:13.870Z,21.83
2023-01-29T18:42:47.798Z,20.70
2023-01-29T18:45:15.466Z,30.95
2023-01-29T18:47:44.284Z,21.92
2023-01-29T18:50:14.864Z,25.85
2023-01-29T18:52:41.406Z,26.38
2023-01-29T18:55:10.465Z,27.15
2023-01-29T18:58:27.338Z,22.30
2023-01-29T19:00:27.830Z,15.65
2023-01-29T19:02:54.357Z,18.70
2023-01-29T19:05:24.563Z,21.65
2023-01-29T19:07:53.372Z,19.10
2023-01-29T19:10:19.883Z,18.15
2023-01-29T19:12:46.496Z,20.85
2023-01-29T19:15:13.052Z,19.55
2023-01-29T19:17:39.581Z,18.38
2023-01-29T19:20:06.373Z,18.80
2023-01-29T19:22:32.867Z,19.45
2023-01-29T19:24:59.364Z,19.10
2023-01-29T19:27:30.465Z,21.42
2023-01-29T19:29:57.874Z,19.17
2023-01-29T19:32:28.778Z,21.73
2023-01-29T19:34:55.318Z,24.27
2023-01-29T19:37:27.811Z,20.10
2023-01-29T19:39:56.967Z,19.70
2023-01-29T19:42:23.520Z,18.15
2023-01-29T19:44:53.386Z,18.60
2023-01-29T19:47:22.107Z,19.17
2023-01-29T19:49:51.055Z,17.38
2023-01-29T19:52:52.882Z,19.42
2023-01-29T19:55:22.378Z,23.88
2023-01-29T19:57:51.609Z,20.70
2023-01-29T20:00:19.622Z,21.83
2023-01-29T20:02:46.135Z,20.15
2023-01-29T20:05:13.130Z,20.10
2023-01-29T20:10:17.126Z,17.55
2023-01-29T20:12:46.824Z,18.52
2023-01-29T20:15:16.252Z,16.30
2023-01-29T20:17:43.619Z,20.92
2023-01-29T20:20:10.405Z,18.30
2023-01-29T20:22:41.836Z,17.13
2023-01-29T20:25:13.618Z,19.17
2023-01-29T20:27:40.427Z,17.63
2023-01-29T20:30:09.337Z,21.05
2023-01-29T20:32:38.092Z,18.85
2023-01-29T20:35:07.157Z,15.43
2023-01-29T20:37:33.747Z,18.77
2023-01-29T20:40:00.283Z,16.10
2023-01-29T20:42:26.802Z,17.10
2023-01-29T20:44:53.424Z,14.77
2023-01-29T20:47:23.535Z,17.45
2023-01-29T20:49:50.327Z,16.10
2023-01-29T20:52:21.709Z,18.13
2023-01-29T20:54:51.054Z,16.85
2023-01-29T20:57:20.369Z,15.85
2023-01-29T20:59:46.929Z,15.40
2023-01-29T21:02:15.623Z,20.40
2023-01-29T21:04:44.300Z,18.50
2023-01-29T21:07:10.955Z,13.45
2023-01-29T21:09:39.851Z,17.73
2023-01-29T21:12:08.668Z,15.05
2023-01-29T21:14:35.278Z,16.80
2023-01-29T21:17:06.679Z,14.02
2023-01-29T21:19:33.262Z,15.82
2023-01-29T21:21:59.870Z,12.27
2023-01-29T21:24:26.570Z,16.08
2023-01-29T21:26:53.058Z,16.27
2023-01-29T21:29:19.861Z,11.38
2023-01-29T21:31:51.245Z,17.67
2023-01-29T21:34:20.456Z,16.63
2023-01-29T21:36:46.911Z,12.75
2023-01-29T21:39:20.903Z,16.88
2023-01-29T21:42:07.345Z,16.08
2023-01-29T21:44:36.620Z,14.85
2023-01-29T21:47:23.631Z,17.83
2023-01-29T21:49:52.518Z,13.25
2023-01-29T21:52:22.269Z,16.48
2023-01-29T21:54:51.354Z,16.52
2023-01-29T21:57:17.873Z,11.80
2023-01-29T21:59:45.156Z,10.27
2023-01-29T22:02:19.684Z,14.13
2023-01-29T22:04:54.819Z,13.85
2023-01-29T22:07:27.929Z,17.63
2023-01-29T22:09:54.455Z,14.40
2023-01-29T22:12:21.258Z,13.70
2023-01-29T22:14:49.939Z,14.40
2023-01-29T22:17:16.566Z,12.90
2023-01-29T22:19:45.905Z,14.32
2023-01-29T22:22:16.163Z,12.93
2023-01-29T22:24:46.560Z,12.38
2023-01-29T22:27:13.608Z,13.80
2023-01-29T22:29:44.821Z,15.38
2023-01-29T22:32:11.587Z,13.48
2023-01-29T22:34:42.941Z,12.88
2023-01-29T22:37:11.773Z,15.52
2023-01-29T22:39:40.278Z,14.77
2023-01-29T22:42:09.232Z,11.00
2023-01-29T22:44:35.727Z,14.40
2023-01-29T22:47:04.344Z,12.55
2023-01-29T22:49:33.208Z,12.07
2023-01-29T22:52:11.861Z,12.65
2023-01-29T22:54:42.095Z,16.98
2023-01-29T22:57:12.470Z,12.48
2023-01-29T22:59:39.223Z,15.15
2023-01-29T23:02:06.096Z,10.45
2023-01-29T23:04:34.782Z,13.27
2023-01-29T23:07:03.878Z,11.90
2023-01-29T23:09:30.492Z,16.05
2023-01-29T23:11:57.046Z,14.13
2023-01-29T23:14:25.989Z,16.02
2023-01-29T23:16:55.125Z,12.48
2023-01-29T23:19:24.042Z,14.30
2023-01-29T23:21:50.510Z,13.85
2023-01-29T23:24:19.086Z,12.55
2023-01-29T23:27:04.319Z,10.50
2023-01-29T23:29:33.124Z,12.40
2023-01-29T23:31:59.606Z,13.45
2023-01-29T23:34:26.136Z,10.05
2023-01-29T23:36:55.058Z,13.45
2023-01-29T23:39:21.771Z,12.32
2023-01-29T23:41:48.193Z,12.73
2023-01-29T23:44:20.210Z,9.07
2023-01-29T23:46:49.182Z,10.05
2023-01-29T23:49:18.652Z,11.45
2023-01-29T23:51:49.110Z,10.02
2023-01-29T23:54:18.493Z,11.45
2023-01-29T23:56:49.157Z,12.52
2023-01-29T23:59:17.784Z,11.68
